createdAt,value
2015-04-21T00:00:02.145Z,96570
2015-04-21T00:00:20.522Z,96567
2015-04-21T00:00:39.178Z,96570
2015-04-21T00:00:57.678Z,96562
2015-04-21T00:01:16.194Z,96557
2015-04-21T00:01:34.806Z,96573
2015-04-21T00:01:53.213Z,96564
2015-04-21T00:02:11.603Z,96573
2015-04-21T00:02:30.028Z,96573
2015-04-21T00:02:48.434Z,96560
2015-04-21T00:03:06.919Z,96564
2015-04-21T00:03:25.372Z,96570
2015-04-21T00:03:44.030Z,96576
2015-04-21T00:04:02.421Z,96570
2015-04-21T00:04:20.905Z,96567
2015-04-21T00:04:39.532Z,96565
2015-04-21T00:04:58.282Z,96565
2015-04-21T00:05:16.751Z,96570
2015-04-21T00:05:35.223Z,96565
2015-04-21T00:05:53.894Z,96565
2015-04-21T00:06:12.316Z,96567
2015-04-21T00:06:30.910Z,96565
2015-04-21T00:06:49.646Z,96557
2015-04-21T00:07:08.068Z,96565
2015-04-21T00:07:26.646Z,96562
2015-04-21T00:07:45.384Z,96557
2015-04-21T00:08:04.431Z,96557
2015-04-21T00:08:22.837Z,96562
2015-04-21T00:08:41.321Z,96565
2015-04-21T00:09:00.198Z,96565
2015-04-21T00:09:18.730Z,96568
2015-04-21T00:09:37.214Z,96555
2015-04-21T00:09:55.685Z,96560
2015-04-21T00:10:14.310Z,96560
2015-04-21T00:10:32.732Z,96562
2015-04-21T00:10:51.341Z,96560
2015-04-21T00:11:09.766Z,96560
2015-04-21T00:11:28.235Z,96560
2015-04-21T00:11:46.750Z,96555
2015-04-21T00:12:05.222Z,96558
2015-04-21T00:12:23.800Z,96555
2015-04-21T00:12:42.331Z,96552
2015-04-21T00:13:01.194Z,96552
2015-04-21T00:13:19.772Z,96560
2015-04-21T00:13:38.194Z,96555
2015-04-21T00:13:56.741Z,96552
2015-04-21T00:14:15.304Z,96560
2015-04-21T00:14:33.851Z,96562
2015-04-21T00:14:52.507Z,96565
2015-04-21T00:15:11.038Z,96555
2015-04-21T00:15:29.432Z,96560
2015-04-21T00:15:47.823Z,96560
2015-04-21T00:16:06.463Z,96560
2015-04-21T00:16:24.935Z,96555
2015-04-21T00:16:43.341Z,96558
2015-04-21T00:17:01.826Z,96549
2015-04-21T00:17:20.216Z,96552
2015-04-21T00:17:38.813Z,96547
2015-04-21T00:17:57.344Z,96552
2015-04-21T00:18:15.844Z,96544
2015-04-21T00:18:34.549Z,96558
2015-04-21T00:18:53.065Z,96550
2015-04-21T00:19:11.471Z,96550
2015-04-21T00:19:30.176Z,96555
2015-04-21T00:19:48.645Z,96550
2015-04-21T00:20:07.364Z,96553
2015-04-21T00:20:26.145Z,96550
2015-04-21T00:20:44.928Z,96547
2015-04-21T00:21:03.382Z,96553
2015-04-21T00:21:22.053Z,96555
2015-04-21T00:21:40.650Z,96553
2015-04-21T00:21:59.088Z,96560
2015-04-21T00:22:17.510Z,96553
2015-04-21T00:22:36.150Z,96553
2015-04-21T00:22:54.621Z,96558
2015-04-21T00:23:13.105Z,96558
2015-04-21T00:23:31.762Z,96550
2015-04-21T00:23:50.483Z,96550
2015-04-21T00:24:09.077Z,96556
2015-04-21T00:24:27.796Z,96560
2015-04-21T00:24:46.596Z,96559
2015-04-21T00:25:04.986Z,96547
2015-04-21T00:25:23.439Z,96556
2015-04-21T00:25:41.846Z,96556
2015-04-21T00:26:00.504Z,96553
2015-04-21T00:26:19.004Z,96553
2015-04-21T00:26:37.988Z,96556
2015-04-21T00:26:56.412Z,96542
2015-04-21T00:27:14.912Z,96553
2015-04-21T00:27:33.537Z,96550
2015-04-21T00:27:52.131Z,96553
2015-04-21T00:28:10.900Z,96550
2015-04-21T00:28:29.478Z,96564
2015-04-21T00:28:48.134Z,96553
2015-04-21T00:29:06.589Z,96542
2015-04-21T00:29:25.167Z,96556
2015-04-21T00:29:43.589Z,96548
2015-04-21T00:30:02.167Z,96548
2015-04-21T00:30:20.670Z,96551
2015-04-21T00:30:39.108Z,96553
2015-04-21T00:30:57.498Z,96554
2015-04-21T00:31:16.030Z,96545
2015-04-21T00:31:34.453Z,96548
2015-04-21T00:31:52.844Z,96557
2015-04-21T00:32:11.297Z,96557
2015-04-21T00:32:30.019Z,96551
2015-04-21T00:32:48.410Z,96557
2015-04-21T00:33:06.894Z,96554
2015-04-21T00:33:25.394Z,96545
2015-04-21T00:33:43.959Z,96559
2015-04-21T00:34:02.663Z,96551
2015-04-21T00:34:21.288Z,96557
2015-04-21T00:34:39.867Z,96557
2015-04-21T00:34:58.523Z,96557
2015-04-21T00:35:17.054Z,96551
2015-04-21T00:35:35.601Z,96551
2015-04-21T00:35:54.152Z,96554
2015-04-21T00:36:12.777Z,96554
2015-04-21T00:36:31.183Z,96561
2015-04-21T00:36:49.841Z,96551
2015-04-21T00:37:08.232Z,96557
2015-04-21T00:37:26.857Z,96551
2015-04-21T00:37:45.451Z,96545
2015-04-21T00:38:04.032Z,96548
2015-04-21T00:38:22.610Z,96557
2015-04-21T00:38:41.516Z,96543
2015-04-21T00:38:59.925Z,96551
2015-04-21T00:39:18.518Z,96557
2015-04-21T00:39:37.534Z,96545
2015-04-21T00:39:56.145Z,96540
2015-04-21T00:40:14.786Z,96548
2015-04-21T00:40:33.302Z,96561
2015-04-21T00:40:51.864Z,96551
2015-04-21T00:41:10.320Z,96560
2015-04-21T00:41:28.836Z,96554
2015-04-21T00:41:47.289Z,96548
2015-04-21T00:42:05.695Z,96554
2015-04-21T00:42:24.104Z,96545
2015-04-21T00:42:42.526Z,96554
2015-04-21T00:43:01.089Z,96554
2015-04-21T00:43:19.497Z,96546
2015-04-21T00:43:37.935Z,96554
2015-04-21T00:43:56.325Z,96554
2015-04-21T00:44:14.716Z,96557
2015-04-21T00:44:33.108Z,96548
2015-04-21T00:44:51.546Z,96561
2015-04-21T00:45:09.921Z,96557
2015-04-21T00:45:28.611Z,96557
2015-04-21T00:45:47.018Z,96546
2015-04-21T00:46:05.471Z,96562
2015-04-21T00:46:23.877Z,96562
2015-04-21T00:46:42.301Z,96565
2015-04-21T00:47:00.738Z,96557
2015-04-21T00:47:19.129Z,96560
2015-04-21T00:47:37.538Z,96567
2015-04-21T00:47:56.351Z,96562
2015-04-21T00:48:14.741Z,96549
2015-04-21T00:48:33.241Z,96560
2015-04-21T00:48:52.087Z,96560
2015-04-21T00:49:10.743Z,96549
2015-04-21T00:49:29.337Z,96555
2015-04-21T00:49:48.281Z,96549
2015-04-21T00:50:06.703Z,96552
2015-04-21T00:50:25.343Z,96546
2015-04-21T00:50:43.949Z,96546
2015-04-21T00:51:02.355Z,96546
2015-04-21T00:51:20.824Z,96549
2015-04-21T00:51:39.277Z,96552
2015-04-21T00:51:57.776Z,96558
2015-04-21T00:52:16.558Z,96549
2015-04-21T00:52:35.151Z,96552
2015-04-21T00:52:53.712Z,96541
2015-04-21T00:53:12.259Z,96555
2015-04-21T00:53:30.931Z,96541
2015-04-21T00:53:49.447Z,96555
2015-04-21T00:54:07.992Z,96552
2015-04-21T00:54:26.601Z,96549
2015-04-21T00:54:45.211Z,96544
2015-04-21T00:55:04.018Z,96555
2015-04-21T00:55:22.596Z,96560
2015-04-21T00:55:41.002Z,96547
2015-04-21T00:55:59.455Z,96547
2015-04-21T00:56:17.900Z,96547
2015-04-21T01:25:38.820Z,96550
2015-04-21T01:25:57.445Z,96547
2015-04-21T01:26:16.460Z,96553
2015-04-21T01:26:35.306Z,96561
2015-04-21T01:26:54.134Z,96545
2015-04-21T01:27:12.525Z,96542
2015-04-21T01:27:30.915Z,96547
2015-04-21T01:27:49.684Z,96556
2015-04-21T01:28:08.247Z,96556
2015-04-21T01:28:26.965Z,96559
2015-04-21T01:28:45.467Z,96553
2015-04-21T01:29:03.967Z,96553
2015-04-21T01:29:22.639Z,96556
2015-04-21T01:29:41.124Z,96553
2015-04-21T01:29:59.564Z,96553
2015-04-21T01:30:18.033Z,96556
2015-04-21T01:30:36.892Z,96550
2015-04-21T01:30:55.425Z,96556
2015-04-21T01:31:13.847Z,96556
2015-04-21T01:31:32.363Z,96556
2015-04-21T01:31:51.050Z,96548
2015-04-21T01:32:09.788Z,96551
2015-04-21T01:32:28.382Z,96553
2015-04-21T01:32:46.975Z,96553
2015-04-21T01:33:05.665Z,96548
2015-04-21T01:33:24.446Z,96554
2015-04-21T01:33:42.962Z,96551
2015-04-21T01:34:01.587Z,96556
2015-04-21T01:34:20.262Z,96551
2015-04-21T01:34:39.027Z,96554
2015-04-21T01:34:57.558Z,96564
2015-04-21T01:35:16.154Z,96559
2015-04-21T01:35:35.045Z,96554
2015-04-21T01:35:53.529Z,96559
2015-04-21T01:36:12.217Z,96559
2015-04-21T01:36:30.953Z,96556
2015-04-21T01:36:49.500Z,96559
2015-04-21T01:37:07.937Z,96559
2015-04-21T01:37:26.331Z,96554
2015-04-21T01:37:44.769Z,96548
2015-04-21T01:38:03.253Z,96551
2015-04-21T01:38:21.956Z,96559
2015-04-21T01:38:40.552Z,96548
2015-04-21T01:38:59.130Z,96554
2015-04-21T01:39:17.521Z,96548
2015-04-21T01:39:36.055Z,96554
2015-04-21T01:39:54.477Z,96551
2015-04-21T01:40:13.211Z,96546
2015-04-21T01:40:31.680Z,96554
2015-04-21T01:40:50.244Z,96546
2015-04-21T01:41:08.666Z,96554
2015-04-21T01:41:27.088Z,96554
2015-04-21T01:41:45.560Z,96554
2015-04-21T01:42:04.060Z,96549
2015-04-21T01:42:22.497Z,96554
2015-04-21T01:42:40.950Z,96560
2015-04-21T01:42:59.750Z,96557
2015-04-21T01:43:18.610Z,96554
2015-04-21T01:43:37.047Z,96554
2015-04-21T01:43:55.440Z,96557
2015-04-21T01:44:14.049Z,96551
2015-04-21T01:44:32.580Z,96560
2015-04-21T01:44:51.018Z,96552
2015-04-21T01:45:09.693Z,96552
2015-04-21T01:45:28.193Z,96562
2015-04-21T01:45:46.865Z,96552
2015-04-21T01:46:05.476Z,96551
2015-04-21T01:46:24.023Z,96557
2015-04-21T01:46:42.523Z,96554
2015-04-21T01:47:00.960Z,96552
2015-04-21T01:47:18.838Z,96557
2015-04-21T01:47:37.307Z,96557
2015-04-21T01:47:56.026Z,96557
2015-04-21T01:48:14.450Z,96560
2015-04-21T01:48:32.840Z,96557
2015-04-21T01:48:51.231Z,96565
2015-04-21T01:49:10.012Z,96560
2015-04-21T01:49:28.624Z,96560
2015-04-21T01:49:47.233Z,96560
2015-04-21T01:50:05.811Z,96565
2015-04-21T01:50:24.470Z,96568
2015-04-21T01:50:43.158Z,96562
2015-04-21T01:51:01.705Z,96571
2015-04-21T01:51:20.505Z,96565
2015-04-21T01:51:39.114Z,96560
2015-04-21T01:51:57.505Z,96568
2015-04-21T01:52:16.083Z,96565
2015-04-21T01:52:34.600Z,96568
2015-04-21T01:52:53.210Z,96573
2015-04-21T01:53:11.632Z,96565
2015-04-21T01:53:30.272Z,96562
2015-04-21T01:53:48.806Z,96560
2015-04-21T01:54:07.212Z,96571
2015-04-21T01:54:26.118Z,96562
2015-04-21T01:54:44.684Z,96565
2015-04-21T01:55:03.387Z,96562
2015-04-21T01:55:22.168Z,96562
2015-04-21T01:55:40.701Z,96565
2015-04-21T01:55:59.248Z,96571
2015-04-21T01:56:17.811Z,96571
2015-04-21T01:56:35.779Z,96579
2015-04-21T01:56:54.235Z,96568
2015-04-21T01:57:12.673Z,96571
2015-04-21T01:57:31.407Z,96574
2015-04-21T01:57:50.081Z,96565
2015-04-21T01:58:08.487Z,96580
2015-04-21T01:58:26.956Z,96577
2015-04-21T01:58:45.378Z,96577
2015-04-21T01:59:03.834Z,96582
2015-04-21T01:59:22.225Z,96566
2015-04-21T01:59:40.615Z,96583
2015-04-21T01:59:59.147Z,96574
2015-04-21T02:00:17.602Z,96571
2015-04-21T02:00:36.196Z,96568
2015-04-21T02:00:54.789Z,96574
2015-04-21T02:01:13.433Z,96571
2015-04-21T02:01:31.995Z,96571
2015-04-21T02:01:50.370Z,96574
2015-04-21T02:02:09.044Z,96574
2015-04-21T02:02:27.591Z,96566
2015-04-21T02:02:46.169Z,96574
2015-04-21T02:03:04.794Z,96583
2015-04-21T02:03:23.500Z,96571
2015-04-21T02:03:41.875Z,96571
2015-04-21T02:04:00.579Z,96574
2015-04-21T02:04:19.268Z,96577
2015-04-21T02:04:37.752Z,96571
2015-04-21T02:04:56.518Z,96574
2015-04-21T02:05:14.909Z,96574
2015-04-21T02:05:33.536Z,96580
2015-04-21T02:05:51.989Z,96580
2015-04-21T02:06:10.567Z,96577
2015-04-21T02:06:29.270Z,96577
2015-04-21T02:06:47.664Z,96571
2015-04-21T02:07:06.304Z,96571
2015-04-21T02:07:24.914Z,96577
2015-04-21T02:07:43.385Z,96583
2015-04-21T02:08:01.901Z,96580
2015-04-21T02:08:20.573Z,96577
2015-04-21T02:08:38.979Z,96588
2015-04-21T02:08:57.528Z,96580
2015-04-21T02:09:16.231Z,96580
2015-04-21T02:09:34.653Z,96566
2015-04-21T02:09:53.265Z,96583
2015-04-21T02:10:11.750Z,96574
2015-04-21T02:10:30.344Z,96586
2015-04-21T02:10:49.064Z,96574
2015-04-21T02:11:07.064Z,96583
2015-04-21T02:11:25.564Z,96571
2015-04-21T02:11:44.017Z,96574
2015-04-21T02:12:02.458Z,96583
2015-04-21T02:12:21.020Z,96583
2015-04-21T02:12:39.614Z,96577
2015-04-21T02:12:58.005Z,96575
2015-04-21T02:13:16.460Z,96572
2015-04-21T02:13:34.976Z,96583
2015-04-21T02:13:53.351Z,96575
2015-04-21T02:14:12.072Z,96580
2015-04-21T02:14:30.541Z,96577
2015-04-21T02:14:49.119Z,96580
2015-04-21T02:15:07.525Z,96583
2015-04-21T02:15:26.324Z,96572
2015-04-21T02:15:44.981Z,96583
2015-04-21T02:16:03.590Z,96575
2015-04-21T02:16:22.234Z,96577
2015-04-21T02:16:40.937Z,96577
2015-04-21T02:16:59.577Z,96577
2015-04-21T02:17:18.157Z,96572
2015-04-21T02:17:36.548Z,96577
2015-04-21T02:17:54.939Z,96577
2015-04-21T02:18:13.611Z,96583
2015-04-21T02:18:32.222Z,96577
2015-04-21T02:18:51.003Z,96577
2015-04-21T02:19:09.519Z,96577
2015-04-21T02:19:28.131Z,96580
2015-04-21T02:19:46.709Z,96577
2015-04-21T02:20:05.147Z,96575
2015-04-21T02:20:23.709Z,96572
2015-04-21T02:20:42.697Z,96580
2015-04-21T02:21:01.353Z,96572
2015-04-21T02:21:20.056Z,96569
2015-04-21T02:21:38.714Z,96575
2015-04-21T02:21:57.152Z,96583
2015-04-21T02:22:15.699Z,96566
2015-04-21T02:22:34.386Z,96566
2015-04-21T02:22:53.061Z,96575
2015-04-21T02:23:11.499Z,96580
2015-04-21T02:23:30.014Z,96583
2015-04-21T02:23:48.608Z,96577
2015-04-21T02:24:07.235Z,96566
2015-04-21T02:24:25.907Z,96580
2015-04-21T02:24:44.547Z,96575
2015-04-21T02:25:03.082Z,96580
2015-04-21T02:25:21.550Z,96583
2015-04-21T02:25:40.097Z,96580
2015-04-21T02:25:59.006Z,96580
2015-04-21T02:26:17.584Z,96566
2015-04-21T02:26:36.177Z,96572
2015-04-21T02:26:54.146Z,96569
2015-04-21T02:27:13.024Z,96578
2015-04-21T02:27:31.509Z,96575
2015-04-21T02:27:49.446Z,96569
2015-04-21T02:28:07.930Z,96575
2015-04-21T02:28:26.526Z,96569
2015-04-21T02:28:45.245Z,96563
2015-04-21T02:29:03.839Z,96566
2015-04-21T02:29:22.560Z,96575
2015-04-21T02:29:41.014Z,96569
2015-04-21T02:29:59.607Z,96572
2015-04-21T02:30:18.297Z,96572
2015-04-21T02:30:36.750Z,96580
2015-04-21T02:30:55.328Z,96569
2015-04-21T02:31:14.266Z,96569
2015-04-21T02:31:32.784Z,96564
2015-04-21T02:31:51.440Z,96572
2015-04-21T02:32:09.987Z,96569
2015-04-21T02:32:28.755Z,96572
2015-04-21T02:32:47.458Z,96566
2015-04-21T02:33:06.083Z,96566
2015-04-21T02:33:24.552Z,96575
2015-04-21T02:33:43.274Z,96569
2015-04-21T02:34:02.008Z,96569
2015-04-21T02:34:20.586Z,96566
2015-04-21T02:34:39.213Z,96564
2015-04-21T02:34:57.947Z,96569
2015-04-21T02:35:16.666Z,96566
2015-04-21T02:35:35.322Z,96572
2015-04-21T02:35:54.028Z,96564
2015-04-21T02:36:12.653Z,96572
2015-04-21T02:36:31.496Z,96564
2015-04-21T02:36:49.999Z,96566
2015-04-21T02:37:08.609Z,96561
2015-04-21T02:37:27.452Z,96569
2015-04-21T02:37:45.312Z,96575
2015-04-21T02:38:04.064Z,96556
2015-04-21T02:38:22.548Z,96575
2015-04-21T02:38:40.939Z,96575
2015-04-21T02:38:59.457Z,96569
2015-04-21T02:39:17.864Z,96575
2015-04-21T02:39:36.489Z,96567
2015-04-21T02:39:55.004Z,96569
2015-04-21T02:40:13.663Z,96572
2015-04-21T02:40:32.209Z,96567
2015-04-21T02:40:50.772Z,96569
2015-04-21T02:41:09.525Z,96575
2015-04-21T02:41:27.978Z,96564
2015-04-21T02:41:46.603Z,96567
2015-04-21T02:42:05.041Z,96564
2015-04-21T02:42:23.433Z,96570
2015-04-21T02:42:41.886Z,96567
2015-04-21T02:43:00.371Z,96570
2015-04-21T02:43:18.858Z,96570
2015-04-21T02:43:37.608Z,96564
2015-04-21T02:43:56.014Z,96570
2015-04-21T02:44:14.657Z,96561
2015-04-21T02:44:33.298Z,96575
2015-04-21T02:44:51.860Z,96567
2015-04-21T02:45:10.548Z,96564
2015-04-21T02:45:28.941Z,96564
2015-04-21T02:45:47.379Z,96567
2015-04-21T02:46:05.879Z,96564
2015-04-21T02:46:24.363Z,96570
2015-04-21T02:46:42.834Z,96573
2015-04-21T02:47:01.521Z,96570
2015-04-21T02:47:20.037Z,96578
2015-04-21T02:47:38.556Z,96584
2015-04-21T02:47:57.102Z,96564
2015-04-21T02:48:15.618Z,96578
2015-04-21T02:48:34.227Z,96570
2015-04-21T02:48:52.683Z,96564
2015-04-21T02:49:11.479Z,96567
2015-04-21T02:49:30.245Z,96561
2015-04-21T02:49:48.826Z,96567
2015-04-21T02:50:07.607Z,96561
2015-04-21T02:50:26.139Z,96567
2015-04-21T02:50:44.797Z,96573
2015-04-21T02:51:03.250Z,96570
2015-04-21T02:51:22.000Z,96567
2015-04-21T02:51:40.594Z,96570
2015-04-21T02:51:59.206Z,96573
2015-04-21T02:52:17.612Z,96570
2015-04-21T02:52:36.253Z,96573
2015-04-21T02:52:54.644Z,96573
2015-04-21T02:53:13.068Z,96567
2015-04-21T02:53:31.458Z,96576
2015-04-21T02:53:50.302Z,96573
2015-04-21T02:54:09.086Z,96576
2015-04-21T02:54:27.539Z,96576
2015-04-21T02:54:46.227Z,96573
2015-04-21T02:55:04.789Z,96573
2015-04-21T02:55:23.494Z,96570
2015-04-21T02:55:41.932Z,96570
2015-04-21T02:56:00.323Z,96576
2015-04-21T02:56:18.887Z,96579
2015-04-21T02:56:37.278Z,96568
2015-04-21T02:56:55.653Z,96570
2015-04-21T02:57:14.121Z,96568
2015-04-21T02:57:32.546Z,96565
2015-04-21T02:57:51.328Z,96585
2015-04-21T02:58:09.874Z,96585
2015-04-21T02:58:28.315Z,96574
2015-04-21T02:58:46.752Z,96568
2015-04-21T02:59:05.252Z,96565
2015-04-21T02:59:23.846Z,96574
2015-04-21T02:59:42.630Z,96571
2015-04-21T03:00:01.380Z,96582
2015-04-21T03:00:20.052Z,96574
2015-04-21T03:00:38.570Z,96568
2015-04-21T03:00:57.101Z,96576
2015-04-21T03:01:15.539Z,96565
2015-04-21T03:01:34.039Z,96574
2015-04-21T03:01:52.509Z,96565
2015-04-21T03:02:11.072Z,96571
2015-04-21T03:02:29.603Z,96576
2015-04-21T03:02:48.325Z,96582
2015-04-21T03:03:06.794Z,96574
2015-04-21T03:03:25.184Z,96576
2015-04-21T03:03:43.622Z,96579
2015-04-21T03:04:02.249Z,96568
2015-04-21T03:04:20.671Z,96571
2015-04-21T03:04:39.218Z,96568
2015-04-21T03:04:57.611Z,96571
2015-04-21T03:05:16.205Z,96568
2015-04-21T03:05:34.674Z,96568
2015-04-21T03:05:53.377Z,96574
2015-04-21T03:06:11.816Z,96565
2015-04-21T03:06:30.582Z,96568
2015-04-21T03:06:49.238Z,96568
2015-04-21T03:07:07.772Z,96562
2015-04-21T03:07:26.335Z,96565
2015-04-21T03:07:44.913Z,96568
2015-04-21T03:08:03.366Z,96563
2015-04-21T03:08:21.899Z,96565
2015-04-21T03:08:40.321Z,96566
2015-04-21T03:08:58.884Z,96568
2015-04-21T03:09:17.637Z,96566
2015-04-21T03:09:36.043Z,96566
2015-04-21T03:09:54.699Z,96569
2015-04-21T03:10:13.074Z,96569
2015-04-21T03:10:31.623Z,96566
2015-04-21T03:10:50.139Z,96577
2015-04-21T03:11:08.717Z,96571
2015-04-21T03:11:27.485Z,96571
2015-04-21T03:11:46.219Z,96574
2015-04-21T03:12:04.610Z,96571
2015-04-21T03:12:23.016Z,96574
2015-04-21T03:12:41.519Z,96566
2015-04-21T03:13:00.113Z,96566
2015-04-21T03:13:18.550Z,96569
2015-04-21T03:13:36.975Z,96566
2015-04-21T03:13:55.381Z,96569
2015-04-21T03:14:13.787Z,96566
2015-04-21T03:14:32.366Z,96572
2015-04-21T03:14:51.102Z,96580
2015-04-21T03:15:09.508Z,96574
2015-04-21T03:15:28.243Z,96574
2015-04-21T03:15:46.808Z,96583
2015-04-21T03:16:05.558Z,96577
2015-04-21T03:16:23.996Z,96572
2015-04-21T03:16:42.857Z,96569
2015-04-21T03:17:01.498Z,96577
2015-04-21T03:17:20.107Z,96574
2015-04-21T03:17:38.591Z,96572
2015-04-21T03:17:57.047Z,96566
2015-04-21T03:18:15.657Z,96577
2015-04-21T03:18:34.469Z,96572
2015-04-21T03:18:52.924Z,96572
2015-04-21T03:19:11.471Z,96577
2015-04-21T03:19:29.956Z,96577
2015-04-21T03:19:48.424Z,96577
2015-04-21T03:20:06.881Z,96586
2015-04-21T03:20:25.459Z,96583
2015-04-21T03:20:44.006Z,96580
2015-04-21T03:21:02.506Z,96577
2015-04-21T03:21:21.100Z,96578
2015-04-21T03:21:39.100Z,96569
2015-04-21T03:21:57.960Z,96572
2015-04-21T03:22:16.620Z,96572
2015-04-21T03:22:35.042Z,96572
2015-04-21T03:22:53.729Z,96575
2015-04-21T03:23:12.167Z,96578
2015-04-21T03:23:30.934Z,96569
2015-04-21T03:23:49.544Z,96575
2015-04-21T03:24:08.044Z,96575
2015-04-21T03:24:26.936Z,96575
2015-04-21T03:24:45.561Z,96586
2015-04-21T03:25:04.483Z,96578
2015-04-21T03:25:23.002Z,96575
2015-04-21T03:25:41.627Z,96569
2015-04-21T03:26:00.174Z,96578
2015-04-21T03:26:19.064Z,96575
2015-04-21T03:26:37.785Z,96575
2015-04-21T03:26:56.254Z,96564
2015-04-21T03:27:14.832Z,96575
2015-04-21T03:27:33.351Z,96569
2015-04-21T03:27:51.757Z,96575
2015-04-21T03:28:10.273Z,96581
2015-04-21T03:28:28.913Z,96581
2015-04-21T03:28:47.321Z,96569
2015-04-21T03:29:05.900Z,96575
2015-04-21T03:29:24.493Z,96569
2015-04-21T03:29:43.089Z,96569
2015-04-21T03:30:01.620Z,96569
2015-04-21T03:30:20.167Z,96578
2015-04-21T03:30:38.745Z,96581
2015-04-21T03:30:57.483Z,96575
2015-04-21T03:31:16.092Z,96573
2015-04-21T03:31:34.467Z,96570
2015-04-21T03:31:53.033Z,96573
2015-04-21T03:32:11.736Z,96575
2015-04-21T03:32:30.548Z,96570
2015-04-21T03:32:48.941Z,96578
2015-04-21T03:33:07.550Z,96575
2015-04-21T03:33:26.191Z,96573
2015-04-21T03:33:44.628Z,96570
2015-04-21T03:34:03.100Z,96575
2015-04-21T03:34:21.522Z,96575
2015-04-21T03:34:40.288Z,96570
2015-04-21T03:34:58.977Z,96581
2015-04-21T03:35:17.586Z,96573
2015-04-21T03:35:36.040Z,96587
2015-04-21T03:35:54.430Z,96576
2015-04-21T03:36:12.964Z,96578
2015-04-21T03:36:31.511Z,96567
2015-04-21T03:36:50.074Z,96576
2015-04-21T03:37:08.605Z,96576
2015-04-21T03:37:27.138Z,96578
2015-04-21T03:37:45.545Z,96573
2015-04-21T03:38:04.138Z,96573
2015-04-21T03:38:22.859Z,96570
2015-04-21T03:38:41.437Z,96564
2015-04-21T03:39:00.015Z,96570
2015-04-21T03:39:19.034Z,96570
2015-04-21T03:39:37.643Z,96573
2015-04-21T03:39:56.159Z,96576
2015-04-21T03:40:14.878Z,96576
2015-04-21T03:40:33.349Z,96573
2015-04-21T03:40:51.771Z,96573
2015-04-21T03:41:10.240Z,96567
2015-04-21T03:41:28.896Z,96576
2015-04-21T03:41:47.523Z,96579
2015-04-21T03:42:05.914Z,96579
2015-04-21T03:42:24.320Z,96581
2015-04-21T03:42:42.275Z,96573
2015-04-21T03:43:00.728Z,96570
2015-04-21T03:43:19.135Z,96567
2015-04-21T03:43:37.650Z,96573
2015-04-21T03:43:56.372Z,96573
2015-04-21T03:44:14.825Z,96570
2015-04-21T03:44:33.325Z,96579
2015-04-21T03:44:51.906Z,96584
2015-04-21T03:45:10.641Z,96570
2015-04-21T03:45:29.063Z,96570
2015-04-21T03:45:47.690Z,96573
2015-04-21T03:46:06.080Z,96576
2015-04-21T03:46:24.471Z,96570
2015-04-21T03:46:43.018Z,96576
2015-04-21T03:47:01.504Z,96584
2015-04-21T03:47:19.957Z,96579
2015-04-21T03:47:38.598Z,96573
2015-04-21T03:47:57.067Z,96573
2015-04-21T03:48:15.695Z,96582
2015-04-21T03:48:34.101Z,96573
2015-04-21T03:48:52.570Z,96579
2015-04-21T03:49:11.025Z,96576
2015-04-21T03:49:29.478Z,96579
2015-04-21T03:49:48.025Z,96579
2015-04-21T03:50:06.556Z,96587
2015-04-21T03:50:25.059Z,96576
2015-04-21T03:50:43.684Z,96584
2015-04-21T03:51:02.121Z,96582
2015-04-21T03:51:20.703Z,96582
2015-04-21T03:51:39.109Z,96585
2015-04-21T03:51:57.562Z,96593
2015-04-21T03:52:16.124Z,96587
2015-04-21T03:52:34.720Z,96585
2015-04-21T03:52:53.408Z,96585
2015-04-21T03:53:11.798Z,96585
2015-04-21T03:53:30.582Z,96590
2015-04-21T03:53:48.972Z,96579
2015-04-21T03:54:07.425Z,96585
2015-04-21T03:54:26.035Z,96585
2015-04-21T03:54:44.568Z,96585
2015-04-21T03:55:03.255Z,96582
2015-04-21T03:55:21.865Z,96582
2015-04-21T03:55:40.446Z,96585
2015-04-21T03:55:59.008Z,96588
2015-04-21T03:56:17.743Z,96576
2015-04-21T03:56:36.277Z,96587
2015-04-21T03:56:54.824Z,96582
2015-04-21T03:57:13.215Z,96585
2015-04-21T03:57:31.808Z,96579
2015-04-21T03:57:50.560Z,96585
2015-04-21T03:58:09.232Z,96579
2015-04-21T03:58:27.857Z,96585
2015-04-21T03:58:46.578Z,96585
2015-04-21T03:59:05.156Z,96585
2015-04-21T03:59:23.625Z,96585
2015-04-21T03:59:42.265Z,96590
2015-04-21T04:00:00.863Z,96590
2015-04-21T04:00:19.457Z,96593
2015-04-21T04:00:38.066Z,96590
2015-04-21T04:00:56.629Z,96582
2015-04-21T04:01:15.037Z,96590
2015-04-21T04:01:33.443Z,96596
2015-04-21T04:01:52.537Z,96596
2015-04-21T04:02:10.993Z,96590
2015-04-21T04:02:29.415Z,96599
2015-04-21T04:02:47.806Z,96591
2015-04-21T04:03:05.540Z,96593
2015-04-21T04:03:24.120Z,96596
2015-04-21T04:03:42.589Z,96588
2015-04-21T04:04:01.073Z,96585
2015-04-21T04:04:19.622Z,96591
2015-04-21T04:04:38.091Z,96591
2015-04-21T04:04:56.560Z,96596
2015-04-21T04:05:14.997Z,96599
2015-04-21T04:05:33.625Z,96585
2015-04-21T04:05:52.110Z,96599
2015-04-21T04:06:10.547Z,96596
2015-04-21T04:06:29.002Z,96591
2015-04-21T04:06:47.737Z,96599
2015-04-21T04:07:06.330Z,96588
2015-04-21T04:07:24.096Z,96593
2015-04-21T04:07:42.974Z,96599
2015-04-21T04:08:01.505Z,96596
2015-04-21T04:08:19.974Z,96591
2015-04-21T04:08:38.523Z,96591
2015-04-21T04:08:57.132Z,96593
2015-04-21T04:09:15.757Z,96588
2015-04-21T04:09:34.148Z,96593
2015-04-21T04:09:52.665Z,96591
2015-04-21T04:10:11.306Z,96596
2015-04-21T04:10:29.790Z,96585
2015-04-21T04:10:48.450Z,96591
2015-04-21T04:11:07.012Z,96602
2015-04-21T04:11:25.622Z,96599
2015-04-21T04:11:44.090Z,96593
2015-04-21T04:12:02.624Z,96596
2015-04-21T04:12:21.483Z,96593
2015-04-21T04:12:40.092Z,96591
2015-04-21T04:12:58.595Z,96593
2015-04-21T04:13:17.064Z,96602
2015-04-21T04:13:35.595Z,96591
2015-04-21T04:13:54.142Z,96596
2015-04-21T04:14:12.583Z,96596
2015-04-21T04:14:31.255Z,96591
2015-04-21T04:14:50.145Z,96596
2015-04-21T04:15:08.617Z,96602
2015-04-21T04:15:27.133Z,96596
2015-04-21T04:15:45.742Z,96599
2015-04-21T04:16:04.195Z,96599
2015-04-21T04:16:23.025Z,96594
2015-04-21T04:16:41.572Z,96599
2015-04-21T04:17:00.197Z,96594
2015-04-21T04:17:18.700Z,96599
2015-04-21T04:17:37.419Z,96599
2015-04-21T04:17:56.013Z,96602
2015-04-21T04:18:14.593Z,96599
2015-04-21T04:18:32.983Z,96602
2015-04-21T04:18:51.468Z,96599
2015-04-21T04:19:10.124Z,96605
2015-04-21T04:19:28.829Z,96599
2015-04-21T04:19:47.329Z,96599
2015-04-21T04:20:06.063Z,96596
2015-04-21T04:20:24.629Z,96599
2015-04-21T04:20:43.082Z,96599
2015-04-21T04:21:01.879Z,96602
2015-04-21T04:21:20.301Z,96602
2015-04-21T04:21:39.053Z,96605
2015-04-21T04:21:57.490Z,96614
2015-04-21T04:22:15.897Z,96614
2015-04-21T04:22:34.397Z,96605
2015-04-21T04:22:52.962Z,96599
2015-04-21T04:23:11.415Z,96608
2015-04-21T04:23:30.134Z,96599
2015-04-21T04:23:48.762Z,96611
2015-04-21T04:24:07.215Z,96605
2015-04-21T04:24:25.762Z,96600
2015-04-21T04:24:44.324Z,96611
2015-04-21T04:25:02.873Z,96616
2015-04-21T04:25:21.498Z,96594
2015-04-21T04:25:40.170Z,96611
2015-04-21T04:25:58.750Z,96619
2015-04-21T04:26:17.328Z,96600
2015-04-21T04:26:35.891Z,96608
2015-04-21T04:26:54.391Z,96608
2015-04-21T04:27:12.878Z,96614
2015-04-21T04:27:31.300Z,96619
2015-04-21T04:27:49.972Z,96614